sensor_id;sensor_type;location;lat;lon;timestamp;temperature;humidity
15409;DHT22;7803;48.130;13.788;2023-01-15T00:00:23;22.30;81.50
15409;DHT22;7803;48.130;13.788;2023-01-15T00:03:25;22.40;81.50
15409;DHT22;7803;48.130;13.788;2023-01-15T00:06:28;22.30;81.40
15409;DHT22;7803;48.130;13.788;2023-01-15T00:09:31;22.30;81.40
15409;DHT22;7803;48.130;13.788;2023-01-15T00:12:33;22.30;81.40
15409;DHT22;7803;48.130;13.788;2023-01-15T00:15:36;22.30;81.40
15409;DHT22;7803;48.130;13.788;2023-01-15T00:18:38;22.30;81.40
15409;DHT22;7803;48.130;13.788;2023-01-15T00:21:40;22.20;81.30
15409;DHT22;7803;48.130;13.788;2023-01-15T00:24:43;22.30;81.40
15409;DHT22;7803;48.130;13.788;2023-01-15T00:28:03;22.30;81.40
15409;DHT22;7803;48.130;13.788;2023-01-15T00:31:05;22.20;81.30
15409;DHT22;7803;48.130;13.788;2023-01-15T00:34:07;22.20;81.30
15409;DHT22;7803;48.130;13.788;2023-01-15T00:37:09;22.20;81.30
15409;DHT22;7803;48.130;13.788;2023-01-15T00:40:13;22.20;81.30
15409;DHT22;7803;48.130;13.788;2023-01-15T00:43:15;22.20;81.30
15409;DHT22;7803;48.130;13.788;2023-01-15T00:46:17;22.20;81.30
15409;DHT22;7803;48.130;13.788;2023-01-15T00:49:20;22.20;81.20
15409;DHT22;7803;48.130;13.788;2023-01-15T00:52:22;22.20;81.20
15409;DHT22;7803;48.130;13.788;2023-01-15T00:55:25;22.20;81.30
15409;DHT22;7803;48.130;13.788;2023-01-15T00:58:28;22.10;81.30
15409;DHT22;7803;48.130;13.788;2023-01-15T01:01:30;22.20;81.30
15409;DHT22;7803;48.130;13.788;2023-01-15T01:04:32;22.20;81.30
15409;DHT22;7803;48.130;13.788;2023-01-15T01:07:34;22.10;81.30
15409;DHT22;7803;48.130;13.788;2023-01-15T01:10:37;22.10;81.30
15409;DHT22;7803;48.130;13.788;2023-01-15T01:13:39;22.10;81.30
15409;DHT22;7803;48.130;13.788;2023-01-15T01:16:42;22.10;81.30
15409;DHT22;7803;48.130;13.788;2023-01-15T01:19:44;22.10;81.30
15409;DHT22;7803;48.130;13.788;2023-01-15T01:22:47;22.10;81.30
15409;DHT22;7803;48.130;13.788;2023-01-15T01:25:51;22.10;81.40
15409;DHT22;7803;48.130;13.788;2023-01-15T01:28:53;22.10;81.30
15409;DHT22;7803;48.130;13.788;2023-01-15T01:31:56;22.10;81.30
15409;DHT22;7803;48.130;13.788;2023-01-15T01:34:58;22.20;81.40
15409;DHT22;7803;48.130;13.788;2023-01-15T01:38:00;22.10;81.40
15409;DHT22;7803;48.130;13.788;2023-01-15T01:41:04;22.10;81.60
15409;DHT22;7803;48.130;13.788;2023-01-15T01:44:53;22.10;81.50
15409;DHT22;7803;48.130;13.788;2023-01-15T01:47:32;22.10;81.60
15409;DHT22;7803;48.130;13.788;2023-01-15T01:50:37;22.10;81.50
15409;DHT22;7803;48.130;13.788;2023-01-15T01:53:40;22.10;81.50
15409;DHT22;7803;48.130;13.788;2023-01-15T01:56:42;22.00;81.40
15409;DHT22;7803;48.130;13.788;2023-01-15T01:59:45;22.10;81.40
15409;DHT22;7803;48.130;13.788;2023-01-15T02:02:49;22.10;81.50
15409;DHT22;7803;48.130;13.788;2023-01-15T02:05:54;22.00;81.40
15409;DHT22;7803;48.130;13.788;2023-01-15T02:08:57;22.00;81.40
15409;DHT22;7803;48.130;13.788;2023-01-15T02:12:04;22.00;81.30
15409;DHT22;7803;48.130;13.788;2023-01-15T02:15:11;22.00;81.30
15409;DHT22;7803;48.130;13.788;2023-01-15T02:18:22;22.00;81.40
15409;DHT22;7803;48.130;13.788;2023-01-15T02:21:35;22.00;81.30
15409;DHT22;7803;48.130;13.788;2023-01-15T02:24:51;22.00;81.30
15409;DHT22;7803;48.130;13.788;2023-01-15T02:28:01;22.00;81.30
15409;DHT22;7803;48.130;13.788;2023-01-15T02:31:09;22.00;81.20
15409;DHT22;7803;48.130;13.788;2023-01-15T02:34:15;22.00;81.30
15409;DHT22;7803;48.130;13.788;2023-01-15T02:37:25;22.00;81.30
15409;DHT22;7803;48.130;13.788;2023-01-15T02:40:29;22.00;81.30
15409;DHT22;7803;48.130;13.788;2023-01-15T02:43:36;22.00;81.30
15409;DHT22;7803;48.130;13.788;2023-01-15T02:46:38;22.00;81.20
15409;DHT22;7803;48.130;13.788;2023-01-15T02:49:42;21.90;81.10
15409;DHT22;7803;48.130;13.788;2023-01-15T02:52:47;21.90;81.20
15409;DHT22;7803;48.130;13.788;2023-01-15T02:55:52;21.90;81.10
15409;DHT22;7803;48.130;13.788;2023-01-15T02:58:59;21.90;81.20
15409;DHT22;7803;48.130;13.788;2023-01-15T03:02:09;21.90;81.20
15409;DHT22;7803;48.130;13.788;2023-01-15T03:05:16;21.90;81.10
15409;DHT22;7803;48.130;13.788;2023-01-15T03:08:19;21.90;81.20
15409;DHT22;7803;48.130;13.788;2023-01-15T03:11:21;21.90;81.10
15409;DHT22;7803;48.130;13.788;2023-01-15T03:14:29;21.90;81.10
15409;DHT22;7803;48.130;13.788;2023-01-15T03:17:43;21.90;81.10
15409;DHT22;7803;48.130;13.788;2023-01-15T03:20:56;21.90;81.10
15409;DHT22;7803;48.130;13.788;2023-01-15T03:24:01;21.90;81.10
15409;DHT22;7803;48.130;13.788;2023-01-15T03:27:06;21.80;81.10
15409;DHT22;7803;48.130;13.788;2023-01-15T03:30:12;21.80;81.10
15409;DHT22;7803;48.130;13.788;2023-01-15T03:33:14;21.80;81.10
15409;DHT22;7803;48.130;13.788;2023-01-15T03:36:17;21.80;81.10
15409;DHT22;7803;48.130;13.788;2023-01-15T03:39:19;21.80;81.10
15409;DHT22;7803;48.130;13.788;2023-01-15T03:42:32;21.80;81.10
15409;DHT22;7803;48.130;13.788;2023-01-15T03:45:39;21.80;81.10
15409;DHT22;7803;48.130;13.788;2023-01-15T03:48:48;21.80;81.00
15409;DHT22;7803;48.130;13.788;2023-01-15T03:51:58;21.80;81.00
15409;DHT22;7803;48.130;13.788;2023-01-15T03:55:09;21.80;81.00
15409;DHT22;7803;48.130;13.788;2023-01-15T03:58:14;21.80;81.00
15409;DHT22;7803;48.130;13.788;2023-01-15T04:01:24;21.70;81.00
15409;DHT22;7803;48.130;13.788;2023-01-15T04:04:28;21.80;81.10
15409;DHT22;7803;48.130;13.788;2023-01-15T04:07:30;21.80;81.10
15409;DHT22;7803;48.130;13.788;2023-01-15T04:10:32;21.80;81.10
15409;DHT22;7803;48.130;13.788;2023-01-15T04:13:35;21.80;81.10
15409;DHT22;7803;48.130;13.788;2023-01-15T04:16:38;21.80;81.10
15409;DHT22;7803;48.130;13.788;2023-01-15T04:19:40;21.70;81.00
15409;DHT22;7803;48.130;13.788;2023-01-15T04:22:43;21.70;81.00
15409;DHT22;7803;48.130;13.788;2023-01-15T04:25:45;21.80;81.00
15409;DHT22;7803;48.130;13.788;2023-01-15T04:28:47;21.70;80.90
15409;DHT22;7803;48.130;13.788;2023-01-15T04:31:51;21.70;81.00
15409;DHT22;7803;48.130;13.788;2023-01-15T04:34:57;21.70;80.80
15409;DHT22;7803;48.130;13.788;2023-01-15T04:37:59;21.70;80.80
15409;DHT22;7803;48.130;13.788;2023-01-15T04:41:02;21.70;80.80
15409;DHT22;7803;48.130;13.788;2023-01-15T04:44:21;21.70;80.80
15409;DHT22;7803;48.130;13.788;2023-01-15T04:47:30;21.80;80.80
15409;DHT22;7803;48.130;13.788;2023-01-15T04:50:32;21.80;80.80
15409;DHT22;7803;48.130;13.788;2023-01-15T04:53:34;21.80;80.60
15409;DHT22;7803;48.130;13.788;2023-01-15T04:56:38;21.80;80.60
15409;DHT22;7803;48.130;13.788;2023-01-15T04:59:40;21.80;80.60
15409;DHT22;7803;48.130;13.788;2023-01-15T05:02:44;21.80;80.50
15409;DHT22;7803;48.130;13.788;2023-01-15T05:05:46;21.80;80.50
15409;DHT22;7803;48.130;13.788;2023-01-15T05:08:50;21.80;80.50
15409;DHT22;7803;48.130;13.788;2023-01-15T05:11:52;21.90;80.40
15409;DHT22;7803;48.130;13.788;2023-01-15T05:14:55;21.90;80.40
15409;DHT22;7803;48.130;13.788;2023-01-15T05:17:58;21.90;80.30
15409;DHT22;7803;48.130;13.788;2023-01-15T05:21:00;21.90;80.30
15409;DHT22;7803;48.130;13.788;2023-01-15T05:24:04;21.90;80.30
15409;DHT22;7803;48.130;13.788;2023-01-15T05:27:08;22.00;80.30
15409;DHT22;7803;48.130;13.788;2023-01-15T05:30:11;22.00;80.20
15409;DHT22;7803;48.130;13.788;2023-01-15T05:33:15;22.00;80.10
15409;DHT22;7803;48.130;13.788;2023-01-15T05:36:19;22.00;80.10
15409;DHT22;7803;48.130;13.788;2023-01-15T05:39:22;22.10;80.20
15409;DHT22;7803;48.130;13.788;2023-01-15T05:42:24;22.00;80.10
15409;DHT22;7803;48.130;13.788;2023-01-15T05:45:26;22.10;80.10
15409;DHT22;7803;48.130;13.788;2023-01-15T05:48:29;22.10;80.10
15409;DHT22;7803;48.130;13.788;2023-01-15T05:51:33;22.10;80.00
15409;DHT22;7803;48.130;13.788;2023-01-15T05:54:36;22.10;80.00
15409;DHT22;7803;48.130;13.788;2023-01-15T05:57:38;22.10;80.00
15409;DHT22;7803;48.130;13.788;2023-01-15T06:00:40;22.10;80.00
15409;DHT22;7803;48.130;13.788;2023-01-15T06:03:43;22.10;79.90
15409;DHT22;7803;48.130;13.788;2023-01-15T06:06:47;22.20;80.00
15409;DHT22;7803;48.130;13.788;2023-01-15T06:09:49;22.10;79.90
15409;DHT22;7803;48.130;13.788;2023-01-15T06:12:51;22.10;79.90
15409;DHT22;7803;48.130;13.788;2023-01-15T06:15:53;22.20;79.90
15409;DHT22;7803;48.130;13.788;2023-01-15T06:19:00;22.10;79.90
15409;DHT22;7803;48.130;13.788;2023-01-15T06:22:03;22.20;79.80
15409;DHT22;7803;48.130;13.788;2023-01-15T06:25:06;22.20;79.80
15409;DHT22;7803;48.130;13.788;2023-01-15T06:28:09;22.20;79.80
15409;DHT22;7803;48.130;13.788;2023-01-15T06:31:13;22.20;79.80
15409;DHT22;7803;48.130;13.788;2023-01-15T06:34:16;22.20;79.80
15409;DHT22;7803;48.130;13.788;2023-01-15T06:37:18;22.20;79.70
15409;DHT22;7803;48.130;13.788;2023-01-15T06:40:20;22.20;79.70
15409;DHT22;7803;48.130;13.788;2023-01-15T06:43:23;22.20;79.80
15409;DHT22;7803;48.130;13.788;2023-01-15T06:46:44;22.20;79.70
15409;DHT22;7803;48.130;13.788;2023-01-15T06:50:13;22.20;79.70
15409;DHT22;7803;48.130;13.788;2023-01-15T06:53:15;22.20;79.70
15409;DHT22;7803;48.130;13.788;2023-01-15T06:56:17;22.30;79.80
15409;DHT22;7803;48.130;13.788;2023-01-15T06:59:20;22.30;79.80
15409;DHT22;7803;48.130;13.788;2023-01-15T07:02:22;22.30;79.80
15409;DHT22;7803;48.130;13.788;2023-01-15T07:05:25;22.30;79.70
15409;DHT22;7803;48.130;13.788;2023-01-15T07:08:27;22.30;79.70
15409;DHT22;7803;48.130;13.788;2023-01-15T07:11:29;22.30;79.60
15409;DHT22;7803;48.130;13.788;2023-01-15T07:14:32;22.30;79.60
15409;DHT22;7803;48.130;13.788;2023-01-15T07:17:34;22.30;79.60
15409;DHT22;7803;48.130;13.788;2023-01-15T07:20:37;22.30;79.60
15409;DHT22;7803;48.130;13.788;2023-01-15T07:23:39;22.30;79.60
15409;DHT22;7803;48.130;13.788;2023-01-15T07:26:41;22.30;79.60
15409;DHT22;7803;48.130;13.788;2023-01-15T07:29:45;22.30;79.60
15409;DHT22;7803;48.130;13.788;2023-01-15T07:32:47;22.30;79.50
15409;DHT22;7803;48.130;13.788;2023-01-15T07:35:51;22.30;79.40
15409;DHT22;7803;48.130;13.788;2023-01-15T07:38:53;22.30;79.40
15409;DHT22;7803;48.130;13.788;2023-01-15T07:41:55;22.40;79.50
15409;DHT22;7803;48.130;13.788;2023-01-15T07:45:14;22.30;79.40
15409;DHT22;7803;48.130;13.788;2023-01-15T07:48:34;22.40;79.40
15409;DHT22;7803;48.130;13.788;2023-01-15T07:51:54;22.40;79.40
15409;DHT22;7803;48.130;13.788;2023-01-15T07:54:57;22.40;79.40
15409;DHT22;7803;48.130;13.788;2023-01-15T07:57:59;22.40;79.40
15409;DHT22;7803;48.130;13.788;2023-01-15T08:01:01;22.40;79.40
15409;DHT22;7803;48.130;13.788;2023-01-15T08:04:03;22.40;79.40
15409;DHT22;7803;48.130;13.788;2023-01-15T08:07:06;22.40;79.40
15409;DHT22;7803;48.130;13.788;2023-01-15T08:10:10;22.40;79.40
15409;DHT22;7803;48.130;13.788;2023-01-15T08:13:12;22.40;79.40
15409;DHT22;7803;48.130;13.788;2023-01-15T08:16:34;22.40;79.40
15409;DHT22;7803;48.130;13.788;2023-01-15T08:19:36;22.40;79.30
15409;DHT22;7803;48.130;13.788;2023-01-15T08:22:40;22.40;80.30
15409;DHT22;7803;48.130;13.788;2023-01-15T08:25:42;22.40;79.30
15409;DHT22;7803;48.130;13.788;2023-01-15T08:28:44;22.40;79.30
15409;DHT22;7803;48.130;13.788;2023-01-15T08:31:46;22.50;80.30
15409;DHT22;7803;48.130;13.788;2023-01-15T08:34:48;22.40;79.30
15409;DHT22;7803;48.130;13.788;2023-01-15T08:37:52;22.40;79.30
15409;DHT22;7803;48.130;13.788;2023-01-15T08:40:54;22.40;79.30
15409;DHT22;7803;48.130;13.788;2023-01-15T08:43:59;22.40;79.30
15409;DHT22;7803;48.130;13.788;2023-01-15T08:47:01;22.40;79.30
15409;DHT22;7803;48.130;13.788;2023-01-15T08:50:04;22.40;79.30
15409;DHT22;7803;48.130;13.788;2023-01-15T08:53:09;22.50;79.30
15409;DHT22;7803;48.130;13.788;2023-01-15T08:56:12;22.50;79.30
15409;DHT22;7803;48.130;13.788;2023-01-15T08:59:14;22.50;79.30
15409;DHT22;7803;48.130;13.788;2023-01-15T09:02:16;22.50;79.30
15409;DHT22;7803;48.130;13.788;2023-01-15T09:05:19;22.50;79.30
15409;DHT22;7803;48.130;13.788;2023-01-15T09:08:22;22.50;79.30
15409;DHT22;7803;48.130;13.788;2023-01-15T09:11:24;22.50;79.20
15409;DHT22;7803;48.130;13.788;2023-01-15T09:14:27;22.50;79.20
15409;DHT22;7803;48.130;13.788;2023-01-15T09:17:30;22.50;79.20
15409;DHT22;7803;48.130;13.788;2023-01-15T09:20:32;22.50;79.20
15409;DHT22;7803;48.130;13.788;2023-01-15T09:23:35;22.50;79.20
15409;DHT22;7803;48.130;13.788;2023-01-15T09:26:39;22.50;79.10
15409;DHT22;7803;48.130;13.788;2023-01-15T09:29:41;22.50;79.10
15409;DHT22;7803;48.130;13.788;2023-01-15T09:32:43;22.50;79.20
15409;DHT22;7803;48.130;13.788;2023-01-15T09:35:46;22.50;79.10
15409;DHT22;7803;48.130;13.788;2023-01-15T09:38:50;22.50;79.20
15409;DHT22;7803;48.130;13.788;2023-01-15T09:42:00;22.50;79.10
15409;DHT22;7803;48.130;13.788;2023-01-15T09:45:14;22.50;79.10
15409;DHT22;7803;48.130;13.788;2023-01-15T09:48:24;22.50;79.10
15409;DHT22;7803;48.130;13.788;2023-01-15T09:51:34;22.50;79.10
15409;DHT22;7803;48.130;13.788;2023-01-15T09:54:51;22.60;79.20
15409;DHT22;7803;48.130;13.788;2023-01-15T09:58:00;22.50;79.10
15409;DHT22;7803;48.130;13.788;2023-01-15T10:01:03;22.50;79.10
15409;DHT22;7803;48.130;13.788;2023-01-15T10:04:11;22.60;79.10
15409;DHT22;7803;48.130;13.788;2023-01-15T10:07:17;22.50;79.00
15409;DHT22;7803;48.130;13.788;2023-01-15T10:10:27;22.50;79.00
15409;DHT22;7803;48.130;13.788;2023-01-15T10:13:38;22.50;79.00
15409;DHT22;7803;48.130;13.788;2023-01-15T10:16:42;22.60;79.10
15409;DHT22;7803;48.130;13.788;2023-01-15T10:19:44;22.60;79.10
15409;DHT22;7803;48.130;13.788;2023-01-15T10:23:08;22.50;78.90
15409;DHT22;7803;48.130;13.788;2023-01-15T10:26:28;22.60;79.00
15409;DHT22;7803;48.130;13.788;2023-01-15T10:29:36;22.60;79.00
15409;DHT22;7803;48.130;13.788;2023-01-15T10:32:43;22.50;78.90
15409;DHT22;7803;48.130;13.788;2023-01-15T10:35:53;22.50;78.90
15409;DHT22;7803;48.130;13.788;2023-01-15T10:39:02;22.60;78.90
15409;DHT22;7803;48.130;13.788;2023-01-15T10:42:15;22.60;78.90
15409;DHT22;7803;48.130;13.788;2023-01-15T10:45:25;22.60;78.90
15409;DHT22;7803;48.130;13.788;2023-01-15T10:48:33;22.60;78.90
15409;DHT22;7803;48.130;13.788;2023-01-15T10:51:41;22.60;79.00
15409;DHT22;7803;48.130;13.788;2023-01-15T10:54:47;22.60;78.90
15409;DHT22;7803;48.130;13.788;2023-01-15T10:57:56;22.60;78.90
15409;DHT22;7803;48.130;13.788;2023-01-15T11:01:04;22.60;78.90
15409;DHT22;7803;48.130;13.788;2023-01-15T11:04:08;22.60;78.90
15409;DHT22;7803;48.130;13.788;2023-01-15T11:07:12;22.60;79.00
15409;DHT22;7803;48.130;13.788;2023-01-15T11:10:16;22.60;79.00
15409;DHT22;7803;48.130;13.788;2023-01-15T11:13:23;22.60;78.90
15409;DHT22;7803;48.130;13.788;2023-01-15T11:16:42;22.60;79.00
15409;DHT22;7803;48.130;13.788;2023-01-15T11:20:03;22.60;79.00
15409;DHT22;7803;48.130;13.788;2023-01-15T11:23:13;22.60;78.90
15409;DHT22;7803;48.130;13.788;2023-01-15T11:26:21;22.60;78.90
15409;DHT22;7803;48.130;13.788;2023-01-15T11:29:30;22.60;78.90
15409;DHT22;7803;48.130;13.788;2023-01-15T11:32:34;22.60;78.90
15409;DHT22;7803;48.130;13.788;2023-01-15T11:35:37;22.60;78.90
15409;DHT22;7803;48.130;13.788;2023-01-15T11:38:43;22.60;78.90
15409;DHT22;7803;48.130;13.788;2023-01-15T11:41:47;22.70;79.00
15409;DHT22;7803;48.130;13.788;2023-01-15T11:45:17;22.60;78.90
15409;DHT22;7803;48.130;13.788;2023-01-15T11:48:44;22.60;79.00
15409;DHT22;7803;48.130;13.788;2023-01-15T11:52:05;22.60;79.40
15409;DHT22;7803;48.130;13.788;2023-01-15T11:55:10;22.60;79.60
15409;DHT22;7803;48.130;13.788;2023-01-15T11:58:13;22.60;79.80
15409;DHT22;7803;48.130;13.788;2023-01-15T12:01:23;22.60;80.10
15409;DHT22;7803;48.130;13.788;2023-01-15T12:04:33;22.60;80.00
15409;DHT22;7803;48.130;13.788;2023-01-15T12:07:37;22.70;80.00
15409;DHT22;7803;48.130;13.788;2023-01-15T12:10:45;22.60;80.00
15409;DHT22;7803;48.130;13.788;2023-01-15T12:14:27;22.60;80.10
15409;DHT22;7803;48.130;13.788;2023-01-15T12:17:53;22.70;80.20
15409;DHT22;7803;48.130;13.788;2023-01-15T12:21:01;22.70;80.20
15409;DHT22;7803;48.130;13.788;2023-01-15T12:24:26;22.70;80.20
15409;DHT22;7803;48.130;13.788;2023-01-15T12:27:46;22.60;80.20
15409;DHT22;7803;48.130;13.788;2023-01-15T12:30:57;22.70;80.30
15409;DHT22;7803;48.130;13.788;2023-01-15T12:34:09;22.70;80.30
15409;DHT22;7803;48.130;13.788;2023-01-15T12:37:18;22.60;80.20
15409;DHT22;7803;48.130;13.788;2023-01-15T12:40:27;22.70;80.30
15409;DHT22;7803;48.130;13.788;2023-01-15T12:43:30;22.70;80.30
15409;DHT22;7803;48.130;13.788;2023-01-15T12:46:50;22.70;80.30
15409;DHT22;7803;48.130;13.788;2023-01-15T12:49:58;22.70;80.30
15409;DHT22;7803;48.130;13.788;2023-01-15T12:53:09;22.70;80.30
15409;DHT22;7803;48.130;13.788;2023-01-15T12:56:18;22.70;80.30
15409;DHT22;7803;48.130;13.788;2023-01-15T12:59:28;22.70;80.30
15409;DHT22;7803;48.130;13.788;2023-01-15T13:02:36;22.70;80.50
15409;DHT22;7803;48.130;13.788;2023-01-15T13:05:44;22.70;80.60
15409;DHT22;7803;48.130;13.788;2023-01-15T13:08:53;22.70;80.50
15409;DHT22;7803;48.130;13.788;2023-01-15T13:11:57;22.70;80.50
15409;DHT22;7803;48.130;13.788;2023-01-15T13:15:00;22.70;80.50
15409;DHT22;7803;48.130;13.788;2023-01-15T13:18:06;22.70;80.50
15409;DHT22;7803;48.130;13.788;2023-01-15T13:21:16;22.60;80.50
15409;DHT22;7803;48.130;13.788;2023-01-15T13:24:55;22.70;80.50
15409;DHT22;7803;48.130;13.788;2023-01-15T13:28:16;22.60;80.60
15409;DHT22;7803;48.130;13.788;2023-01-15T13:31:51;22.60;80.50
15409;DHT22;7803;48.130;13.788;2023-01-15T13:35:01;22.70;80.50
15409;DHT22;7803;48.130;13.788;2023-01-15T13:38:15;22.70;81.00
15409;DHT22;7803;48.130;13.788;2023-01-15T13:41:21;22.70;80.80
15409;DHT22;7803;48.130;13.788;2023-01-15T13:44:45;22.80;80.60
15409;DHT22;7803;48.130;13.788;2023-01-15T13:47:50;22.80;80.50
15409;DHT22;7803;48.130;13.788;2023-01-15T13:50:55;22.90;80.90
15409;DHT22;7803;48.130;13.788;2023-01-15T13:54:00;22.90;81.00
15409;DHT22;7803;48.130;13.788;2023-01-15T13:57:09;22.90;80.80
15409;DHT22;7803;48.130;13.788;2023-01-15T14:00:27;23.00;80.80
15409;DHT22;7803;48.130;13.788;2023-01-15T14:03:31;23.00;80.20
15409;DHT22;7803;48.130;13.788;2023-01-15T14:06:41;23.00;80.20
15409;DHT22;7803;48.130;13.788;2023-01-15T14:09:45;23.00;80.30
15409;DHT22;7803;48.130;13.788;2023-01-15T14:12:55;22.90;80.20
15409;DHT22;7803;48.130;13.788;2023-01-15T14:16:08;23.00;80.30
15409;DHT22;7803;48.130;13.788;2023-01-15T14:19:35;22.90;80.20
15409;DHT22;7803;48.130;13.788;2023-01-15T14:22:56;23.00;80.30
15409;DHT22;7803;48.130;13.788;2023-01-15T14:26:08;22.90;80.10
15409;DHT22;7803;48.130;13.788;2023-01-15T14:29:32;22.90;80.10
15409;DHT22;7803;48.130;13.788;2023-01-15T14:32:53;22.90;80.10
15409;DHT22;7803;48.130;13.788;2023-01-15T14:36:08;22.90;80.00
15409;DHT22;7803;48.130;13.788;2023-01-15T14:39:26;22.90;78.70
15409;DHT22;7803;48.130;13.788;2023-01-15T14:42:32;22.90;75.00
15409;DHT22;7803;48.130;13.788;2023-01-15T14:45:54;22.80;72.70
15409;DHT22;7803;48.130;13.788;2023-01-15T14:48:57;22.80;71.70
15409;DHT22;7803;48.130;13.788;2023-01-15T14:51:59;22.70;71.10
15409;DHT22;7803;48.130;13.788;2023-01-15T14:55:08;22.70;71.30
15409;DHT22;7803;48.130;13.788;2023-01-15T14:58:18;22.70;72.00
15409;DHT22;7803;48.130;13.788;2023-01-15T15:01:37;22.70;72.50
15409;DHT22;7803;48.130;13.788;2023-01-15T15:04:42;22.70;73.00
15409;DHT22;7803;48.130;13.788;2023-01-15T15:07:47;22.70;73.20
15409;DHT22;7803;48.130;13.788;2023-01-15T15:10:53;22.70;73.40
15409;DHT22;7803;48.130;13.788;2023-01-15T15:13:57;22.70;73.60
15409;DHT22;7803;48.130;13.788;2023-01-15T15:17:04;22.70;73.80
15409;DHT22;7803;48.130;13.788;2023-01-15T15:20:22;22.70;74.10
15409;DHT22;7803;48.130;13.788;2023-01-15T15:23:30;22.70;74.30
15409;DHT22;7803;48.130;13.788;2023-01-15T15:26:36;22.70;74.50
15409;DHT22;7803;48.130;13.788;2023-01-15T15:29:40;22.70;74.70
15409;DHT22;7803;48.130;13.788;2023-01-15T15:32:43;22.80;74.90
15409;DHT22;7803;48.130;13.788;2023-01-15T15:35:48;22.70;75.00
15409;DHT22;7803;48.130;13.788;2023-01-15T15:38:51;22.80;75.20
15409;DHT22;7803;48.130;13.788;2023-01-15T15:41:56;22.80;75.40
15409;DHT22;7803;48.130;13.788;2023-01-15T15:45:30;22.80;75.40
15409;DHT22;7803;48.130;13.788;2023-01-15T15:48:56;22.80;75.60
15409;DHT22;7803;48.130;13.788;2023-01-15T15:51:58;22.80;75.70
15409;DHT22;7803;48.130;13.788;2023-01-15T15:55:03;22.80;75.70
15409;DHT22;7803;48.130;13.788;2023-01-15T15:58:07;22.80;75.90
15409;DHT22;7803;48.130;13.788;2023-01-15T16:01:15;22.80;75.90
15409;DHT22;7803;48.130;13.788;2023-01-15T16:04:18;22.80;76.10
15409;DHT22;7803;48.130;13.788;2023-01-15T16:07:23;22.80;76.10
15409;DHT22;7803;48.130;13.788;2023-01-15T16:10:30;22.80;76.30
15409;DHT22;7803;48.130;13.788;2023-01-15T16:13:35;22.90;76.40
15409;DHT22;7803;48.130;13.788;2023-01-15T16:16:42;22.90;76.40
15409;DHT22;7803;48.130;13.788;2023-01-15T16:19:46;22.90;76.40
15409;DHT22;7803;48.130;13.788;2023-01-15T16:22:55;22.90;76.50
15409;DHT22;7803;48.130;13.788;2023-01-15T16:26:02;22.90;76.50
15409;DHT22;7803;48.130;13.788;2023-01-15T16:29:14;22.90;76.60
15409;DHT22;7803;48.130;13.788;2023-01-15T16:32:23;22.90;76.60
15409;DHT22;7803;48.130;13.788;2023-01-15T16:35:29;22.90;76.70
15409;DHT22;7803;48.130;13.788;2023-01-15T16:38:37;22.90;76.70
15409;DHT22;7803;48.130;13.788;2023-01-15T16:41:40;22.90;76.80
15409;DHT22;7803;48.130;13.788;2023-01-15T16:44:50;22.90;76.80
15409;DHT22;7803;48.130;13.788;2023-01-15T16:48:09;22.90;76.90
15409;DHT22;7803;48.130;13.788;2023-01-15T16:51:31;22.90;77.00
15409;DHT22;7803;48.130;13.788;2023-01-15T16:54:42;22.90;77.10
15409;DHT22;7803;48.130;13.788;2023-01-15T16:57:45;22.90;77.10
15409;DHT22;7803;48.130;13.788;2023-01-15T17:00:50;22.90;77.10
15409;DHT22;7803;48.130;13.788;2023-01-15T17:03:57;22.90;77.20
15409;DHT22;7803;48.130;13.788;2023-01-15T17:07:06;22.90;77.20
15409;DHT22;7803;48.130;13.788;2023-01-15T17:10:20;22.90;77.20
15409;DHT22;7803;48.130;13.788;2023-01-15T17:13:30;22.90;77.20
15409;DHT22;7803;48.130;13.788;2023-01-15T17:16:35;22.80;77.20
15409;DHT22;7803;48.130;13.788;2023-01-15T17:19:39;22.80;77.20
15409;DHT22;7803;48.130;13.788;2023-01-15T17:22:44;22.80;77.10
15409;DHT22;7803;48.130;13.788;2023-01-15T17:25:47;22.80;77.20
15409;DHT22;7803;48.130;13.788;2023-01-15T17:28:50;22.80;77.20
15409;DHT22;7803;48.130;13.788;2023-01-15T17:31:54;22.80;77.20
15409;DHT22;7803;48.130;13.788;2023-01-15T17:34:59;22.80;77.20
15409;DHT22;7803;48.130;13.788;2023-01-15T17:38:02;22.80;77.20
15409;DHT22;7803;48.130;13.788;2023-01-15T17:41:08;22.80;78.10
15409;DHT22;7803;48.130;13.788;2023-01-15T17:44:12;22.80;77.20
15409;DHT22;7803;48.130;13.788;2023-01-15T17:47:15;22.80;77.20
15409;DHT22;7803;48.130;13.788;2023-01-15T17:50:20;22.80;77.20
15409;DHT22;7803;48.130;13.788;2023-01-15T17:53:24;22.80;77.20
15409;DHT22;7803;48.130;13.788;2023-01-15T17:56:28;22.80;77.20
15409;DHT22;7803;48.130;13.788;2023-01-15T17:59:48;22.80;77.20
15409;DHT22;7803;48.130;13.788;2023-01-15T18:03:13;22.80;77.20
15409;DHT22;7803;48.130;13.788;2023-01-15T18:06:37;22.80;77.20
15409;DHT22;7803;48.130;13.788;2023-01-15T18:09:42;22.80;77.20
15409;DHT22;7803;48.130;13.788;2023-01-15T18:12:45;22.80;77.20
15409;DHT22;7803;48.130;13.788;2023-01-15T18:15:48;22.80;77.20
15409;DHT22;7803;48.130;13.788;2023-01-15T18:18:53;22.80;77.30
15409;DHT22;7803;48.130;13.788;2023-01-15T18:22:14;22.80;77.30
15409;DHT22;7803;48.130;13.788;2023-01-15T18:25:18;22.80;77.40
15409;DHT22;7803;48.130;13.788;2023-01-15T18:28:22;22.70;77.40
15409;DHT22;7803;48.130;13.788;2023-01-15T18:31:25;22.70;77.40
15409;DHT22;7803;48.130;13.788;2023-01-15T18:34:28;22.70;77.40
15409;DHT22;7803;48.130;13.788;2023-01-15T18:37:33;22.70;77.40
15409;DHT22;7803;48.130;13.788;2023-01-15T18:40:36;22.70;77.60
15409;DHT22;7803;48.130;13.788;2023-01-15T18:43:39;22.70;77.60
15409;DHT22;7803;48.130;13.788;2023-01-15T18:47:01;22.70;77.60
15409;DHT22;7803;48.130;13.788;2023-01-15T18:50:05;22.70;77.70
15409;DHT22;7803;48.130;13.788;2023-01-15T18:53:11;22.70;77.70
15409;DHT22;7803;48.130;13.788;2023-01-15T18:56:14;22.60;77.70
15409;DHT22;7803;48.130;13.788;2023-01-15T18:59:37;22.60;77.60
15409;DHT22;7803;48.130;13.788;2023-01-15T19:02:40;22.60;77.60
15409;DHT22;7803;48.130;13.788;2023-01-15T19:05:44;22.70;77.70
15409;DHT22;7803;48.130;13.788;2023-01-15T19:08:49;22.60;77.60
15409;DHT22;7803;48.130;13.788;2023-01-15T19:11:52;22.60;77.60
15409;DHT22;7803;48.130;13.788;2023-01-15T19:14:56;22.70;77.70
15409;DHT22;7803;48.130;13.788;2023-01-15T19:18:15;22.70;77.60
15409;DHT22;7803;48.130;13.788;2023-01-15T19:21:35;22.70;77.60
15409;DHT22;7803;48.130;13.788;2023-01-15T19:24:42;22.70;77.60
15409;DHT22;7803;48.130;13.788;2023-01-15T19:27:47;22.70;77.60
15409;DHT22;7803;48.130;13.788;2023-01-15T19:30:50;22.60;77.50
15409;DHT22;7803;48.130;13.788;2023-01-15T19:34:06;22.70;77.60
15409;DHT22;7803;48.130;13.788;2023-01-15T19:37:11;22.70;77.60
15409;DHT22;7803;48.130;13.788;2023-01-15T19:40:16;22.70;77.60